Time;durP1;ratioP1;P1;durP2;ratioP2;P2;SDS_P1;SDS_P2;PMS_P1;PMS_P2;Temp;Humidity;BMP_temperature;BMP_pressure;BME280_temperature;BME280_humidity;BME280_pressure;Samples;Min_cycle;Max_cycle;Signal;HPM_P1;HPM_P2
2023/04/21 00:00:28;;;;;;;;;;;;;;;;;;5081508;28;19924;-77
2023/04/21 00:03:16;;;;;;;;;;;;;;;;;;5080416;28;19931;-78
2023/04/21 00:06:05;;;;;;;;;;;;;;;;;;5084657;28;19915;-77
2023/04/21 00:08:51;;;;;;;;;;;;;;;;;;5081324;28;19912;-77
2023/04/21 00:11:38;;;;;;;;;;;;;;;;;;5081061;28;19924;-77
2023/04/21 00:14:24;;;;;;;;;;;;;;;;;;5081344;28;19923;-77
2023/04/21 00:17:10;;;;;;;;;;;;;;;;;;5077263;28;20419;-78
2023/04/21 00:20:00;;;;;;;;;;;;;;;;;;5083736;28;19924;-77
2023/04/21 00:22:46;;;;;;;;;;;;;;;;;;5084600;28;19921;-77
2023/04/21 00:25:33;;;;;;;;;;;;;;;;;;5081666;28;19975;-77
2023/04/21 00:28:19;;;;;;;;;;;;;;;;;;5076133;28;19966;-76
2023/04/21 00:31:06;;;;;;;;;;;;;;;;;;5082860;28;19926;-77
2023/04/21 00:33:52;;;;;;;;;;;;;;;;;;5078375;28;20031;-76
2023/04/21 00:36:39;;;;;;;;;;;;;;;;;;5081317;28;19915;-76
2023/04/21 00:39:25;;;;;;;;;;;;;;;;;;5076695;28;19931;-76
2023/04/21 00:42:12;;;;;;;;;;;;;;;;;;5072780;28;20021;-76
2023/04/21 00:44:58;;;;;;;;;;;;;;;;;;5083833;28;19923;-76
2023/04/21 00:47:45;;;;;;;;;;;;;;;;;;5083584;28;19916;-76
2023/04/21 00:50:31;;;;;;;;;;;;;;;;;;5085358;28;19916;-76
2023/04/21 00:53:18;;;;;;;;;;;;;;;;;;5084227;28;19926;-76
2023/04/21 00:56:04;;;;;;;;;;;;;;;;;;5088655;28;20554;-76
2023/04/21 00:58:51;;;;;;;;;;;;;;;;;;5099948;28;19927;-76
2023/04/21 01:01:38;;;;;;;;;;;;;;;;;;5093180;28;19917;-76
2023/04/21 01:04:25;;;;;;;;;;;;;;;;;;5083341;28;19923;-82
2023/04/21 01:07:12;;;;;;;;;;;;;;;;;;5078089;28;19920;-77
2023/04/21 01:09:58;;;;;;;;;;;;;;;;;;5083104;28;19923;-77
2023/04/21 01:12:45;;;;;;;;;;;;;;;;;;5083736;28;19916;-77
2023/04/21 01:15:32;;;;;;;;;;;;;;;;;;5084828;28;19916;-77
2023/04/21 01:18:19;;;;;;;;;;;;;;;;;;5075816;28;20295;-76
2023/04/21 01:21:06;;;;;;;;;;;;;;;;;;5083271;28;19928;-76
2023/04/21 01:23:52;;;;;;;;;;;;;;;;;;5083769;28;19916;-77
2023/04/21 01:26:39;;;;;;;;;;;;;;;;;;5070135;28;19917;-76
2023/04/21 01:29:25;;;;;;;;;;;;;;;;;;5081868;28;19922;-76
2023/04/21 01:32:12;;;;;;;;;;;;;;;;;;5085813;28;19935;-76
2023/04/21 01:34:58;;;;;;;;;;;;;;;;;;5083234;28;20363;-76
2023/04/21 01:37:45;;;;;;;;;;;;;;;;;;5084522;28;19951;-75
2023/04/21 01:40:31;;;;;;;;;;;;;;;;;;5083588;28;19926;-76
2023/04/21 01:43:18;;;;;;;;;;;;;;;;;;5083188;28;19927;-75
2023/04/21 01:46:04;;;;;;;;;;;;;;;;;;5073803;28;19920;-75
2023/04/21 01:48:51;;;;;;;;;;;;;;;;;;5071137;28;20379;-76
2023/04/21 01:51:37;;;;;;;;;;;;;;;;;;5084719;28;19916;-76
2023/04/21 01:54:24;;;;;;;;;;;;;;;;;;5081453;28;19959;-77
2023/04/21 01:57:10;;;;;;;;;;;;;;;;;;5062864;28;19920;-77
2023/04/21 01:59:57;;;;;;;;;;;;;;;;;;5082001;28;19924;-77
2023/04/21 02:02:43;;;;;;;;;;;;;;;;;;5084390;28;19920;-77
2023/04/21 02:05:30;;;;;;;;;;;;;;;;;;5069063;28;19916;-76
2023/04/21 02:08:16;;;;;;;;;;;;;;;;;;5082869;28;19931;-76
2023/04/21 02:11:03;;;;;;;;;;;;;;;;;;5080783;28;19927;-76
2023/04/21 02:13:49;;;;;;;;;;;;;;;;;;5082167;28;19916;-76
2023/04/21 02:16:36;;;;;;;;;;;;;;;;;;5083339;28;19920;-76
2023/04/21 02:19:22;;;;;;;;;;;;;;;;;;5082747;28;19947;-76
2023/04/21 02:22:11;;;;;;;;;;;;;;;;;;5060546;28;19920;-77
2023/04/21 02:24:58;;;;;;;;;;;;;;;;;;5077801;28;19916;-77
2023/04/21 02:27:44;;;;;;;;;;;;;;;;;;5079653;28;20240;-77
2023/04/21 02:30:31;;;;;;;;;;;;;;;;;;5082185;28;19927;-76
2023/04/21 02:33:17;;;;;;;;;;;;;;;;;;5078930;28;19928;-77
2023/04/21 02:36:04;;;;;;;;;;;;;;;;;;5080750;28;19920;-76
2023/04/21 02:38:50;;;;;;;;;;;;;;;;;;5075658;28;19939;-77
2023/04/21 02:41:37;;;;;;;;;;;;;;;;;;5081914;28;19938;-77
2023/04/21 02:44:23;;;;;;;;;;;;;;;;;;5078194;28;20321;-76
2023/04/21 02:47:10;;;;;;;;;;;;;;;;;;5058279;28;19943;-76
2023/04/21 02:49:56;;;;;;;;;;;;;;;;;;5081817;28;19927;-77
2023/04/21 02:52:43;;;;;;;;;;;;;;;;;;5080743;28;19920;-77
2023/04/21 02:55:29;;;;;;;;;;;;;;;;;;5082143;28;20366;-77
2023/04/21 02:58:16;;;;;;;;;;;;;;;;;;5079359;28;20150;-77
2023/04/21 03:01:02;;;;;;;;;;;;;;;;;;5081842;28;20447;-76
2023/04/21 03:03:49;;;;;;;;;;;;;;;;;;5079346;28;20027;-76
2023/04/21 03:06:35;;;;;;;;;;;;;;;;;;5079916;28;20021;-76
2023/04/21 03:09:22;;;;;;;;;;;;;;;;;;5077950;28;19920;-76
2023/04/21 03:12:08;;;;;;;;;;;;;;;;;;5064840;28;19923;-76
2023/04/21 03:14:55;;;;;;;;;;;;;;;;;;5078914;28;20030;-76
2023/04/21 03:17:41;;;;;;;;;;;;;;;;;;5081080;28;19920;-77
2023/04/21 03:20:28;;;;;;;;;;;;;;;;;;5066302;28;19930;-77
2023/04/21 03:23:15;;;;;;;;;;;;;;;;;;5080540;28;20045;-77
2023/04/21 03:26:02;;;;;;;;;;;;;;;;;;5081692;28;19922;-76
2023/04/21 03:28:48;;;;;;;;;;;;;;;;;;5073159;28;19940;-76
2023/04/21 03:31:35;;;;;;;;;;;;;;;;;;5078857;28;19935;-76
2023/04/21 03:34:21;;;;;;;;;;;;;;;;;;5077153;28;19922;-76
2023/04/21 03:37:08;;;;;;;;;;;;;;;;;;5077344;28;20295;-76
2023/04/21 03:39:56;;;;;;;;;;;;;;;;;;5075755;28;20423;-77
2023/04/21 03:42:42;;;;;;;;;;;;;;;;;;5082962;28;19943;-79
2023/04/21 03:45:29;;;;;;;;;;;;;;;;;;5081197;28;19918;-79
2023/04/21 03:48:15;;;;;;;;;;;;;;;;;;5074247;28;19927;-79
2023/04/21 03:51:02;;;;;;;;;;;;;;;;;;5077081;28;19920;-78
2023/04/21 03:53:48;;;;;;;;;;;;;;;;;;5080301;28;19916;-81
2023/04/21 03:56:35;;;;;;;;;;;;;;;;;;5067180;28;19921;-78
2023/04/21 03:59:21;;;;;;;;;;;;;;;;;;5083955;28;19915;-76
2023/04/21 04:02:08;;;;;;;;;;;;;;;;;;5073400;28;19916;-78
2023/04/21 04:04:54;;;;;;;;;;;;;;;;;;5088709;28;19918;-78
2023/04/21 04:07:41;;;;;;;;;;;;;;;;;;5081048;28;19920;-78
2023/04/21 04:10:27;;;;;;;;;;;;;;;;;;5083787;28;19935;-77
2023/04/21 04:13:14;;;;;;;;;;;;;;;;;;5075384;28;19920;-77
2023/04/21 04:16:01;;;;;;;;;;;;;;;;;;5082465;28;19916;-79
2023/04/21 04:18:47;;;;;;;;;;;;;;;;;;5084121;28;20402;-78
2023/04/21 04:21:34;;;;;;;;;;;;;;;;;;5079272;28;19930;-78
2023/04/21 04:24:20;;;;;;;;;;;;;;;;;;5086237;28;20446;-78
2023/04/21 04:27:08;;;;;;;;;;;;;;;;;;5079903;28;19920;-78
2023/04/21 04:29:54;;;;;;;;;;;;;;;;;;5082953;28;19920;-78
2023/04/21 04:32:41;;;;;;;;;;;;;;;;;;5081538;28;19928;-77
2023/04/21 04:35:27;;;;;;;;;;;;;;;;;;5082099;28;19935;-78
2023/04/21 04:38:14;;;;;;;;;;;;;;;;;;5067884;28;19920;-77
2023/04/21 04:41:01;;;;;;;;;;;;;;;;;;5084798;28;19928;-77
2023/04/21 04:43:47;;;;;;;;;;;;;;;;;;5085626;28;19923;-78
2023/04/21 04:46:34;;;;;;;;;;;;;;;;;;5086472;28;19916;-78
2023/04/21 04:49:20;;;;;;;;;;;;;;;;;;5085159;28;19916;-80
2023/04/21 04:52:07;;;;;;;;;;;;;;;;;;5085242;28;20320;-78
2023/04/21 04:54:53;;;;;;;;;;;;;;;;;;5082097;28;19920;-78
2023/04/21 04:57:40;;;;;;;;;;;;;;;;;;5083798;28;19916;-77
2023/04/21 05:00:27;;;;;;;;;;;;;;;;;;5086043;28;19927;-78
2023/04/21 05:03:14;;;;;;;;;;;;;;;;;;5065368;28;19927;-77
2023/04/21 05:06:00;;;;;;;;;;;;;;;;;;5085922;28;19927;-78
2023/04/21 05:08:47;;;;;;;;;;;;;;;;;;5086029;28;19936;-77
2023/04/21 05:11:33;;;;;;;;;;;;;;;;;;5085448;28;19916;-77
2023/04/21 05:14:20;;;;;;;;;;;;;;;;;;5086016;28;19928;-78
2023/04/21 05:17:06;;;;;;;;;;;;;;;;;;5086575;28;19916;-78
2023/04/21 05:19:53;;;;;;;;;;;;;;;;;;5077664;28;20679;-78
2023/04/21 05:22:39;;;;;;;;;;;;;;;;;;5086107;28;19920;-77
2023/04/21 05:25:26;;;;;;;;;;;;;;;;;;5086228;28;19916;-78
2023/04/21 05:28:13;;;;;;;;;;;;;;;;;;5087283;28;19920;-78
2023/04/21 05:31:00;;;;;;;;;;;;;;;;;;5082268;28;19920;-78
2023/04/21 05:33:46;;;;;;;;;;;;;;;;;;5080724;28;19939;-79
2023/04/21 05:36:33;;;;;;;;;;;;;;;;;;5079516;28;19921;-77
2023/04/21 05:39:19;;;;;;;;;;;;;;;;;;5075851;28;19923;-77
2023/04/21 05:42:06;;;;;;;;;;;;;;;;;;5083673;28;19951;-76
2023/04/21 05:44:54;;;;;;;;;;;;;;;;;;5078592;28;20354;-77
2023/04/21 05:47:40;;;;;;;;;;;;;;;;;;5085204;28;19916;-77
2023/04/21 05:50:32;;;;;;;;;;;;;;;;;;5087314;28;19916;-76
2023/04/21 05:53:19;;;;;;;;;;;;;;;;;;5066609;28;19920;-77
2023/04/21 05:56:05;;;;;;;;;;;;;;;;;;5084567;28;20070;-76
2023/04/21 05:58:52;;;;;;;;;;;;;;;;;;5082122;28;19931;-76
2023/04/21 06:01:38;;;;;;;;;;;;;;;;;;5083507;28;20422;-78
2023/04/21 06:04:25;;;;;;;;;;;;;;;;;;5080533;28;19927;-78
2023/04/21 06:07:12;;;;;;;;;;;;;;;;;;5091487;28;19920;-79
2023/04/21 06:09:59;;;;;;;;;;;;;;;;;;5083807;28;19926;-80
2023/04/21 06:12:45;;;;;;;;;;;;;;;;;;5080443;28;19919;-79
2023/04/21 06:15:32;;;;;;;;;;;;;;;;;;5068184;28;19931;-78
2023/04/21 06:18:18;;;;;;;;;;;;;;;;;;5082359;28;19915;-78
2023/04/21 06:21:05;;;;;;;;;;;;;;;;;;5066877;28;19920;-78
2023/04/21 06:23:51;;;;;;;;;;;;;;;;;;5077163;28;19919;-78
2023/04/21 06:26:38;;;;;;;;;;;;;;;;;;5082142;28;19920;-79
2023/04/21 06:29:24;;;;;;;;;;;;;;;;;;5082034;28;19923;-78
2023/04/21 06:32:11;;;;;;;;;;;;;;;;;;5083977;28;19935;-78
2023/04/21 06:34:57;;;;;;;;;;;;;;;;;;5081965;28;19931;-79
2023/04/21 06:37:44;;;;;;;;;;;;;;;;;;5084592;28;20445;-78
2023/04/21 06:40:30;;;;;;;;;;;;;;;;;;5080853;28;19975;-79
2023/04/21 06:43:17;;;;;;;;;;;;;;;;;;5081191;28;20455;-79
2023/04/21 06:46:03;;;;;;;;;;;;;;;;;;5076866;28;19923;-78
2023/04/21 06:48:50;;;;;;;;;;;;;;;;;;5083999;28;19916;-79
2023/04/21 06:51:36;;;;;;;;;;;;;;;;;;5088946;28;20019;-79
2023/04/21 06:54:22;;;;;;;;;;;;;;;;;;5081399;28;19916;-78
2023/04/21 06:57:09;;;;;;;;;;;;;;;;;;5086136;28;20283;-78
2023/04/21 06:59:55;;;;;;;;;;;;;;;;;;5088903;28;20364;-79
2023/04/21 07:02:42;;;;;;;;;;;;;;;;;;5081263;28;19923;-77
2023/04/21 07:05:28;;;;;;;;;;;;;;;;;;5070566;28;20370;-78
2023/04/21 07:08:15;;;;;;;;;;;;;;;;;;5088877;28;19916;-78
2023/04/21 07:11:01;;;;;;;;;;;;;;;;;;5082914;28;20622;-77
2023/04/21 07:13:48;;;;;;;;;;;;;;;;;;5078964;28;19927;-78
2023/04/21 07:16:34;;;;;;;;;;;;;;;;;;5084440;28;19920;-78
2023/04/21 07:19:21;;;;;;;;;;;;;;;;;;5084158;28;20282;-78
2023/04/21 07:22:07;;;;;;;;;;;;;;;;;;5081832;28;19924;-78
2023/04/21 07:24:54;;;;;;;;;;;;;;;;;;5084473;28;19927;-78
2023/04/21 07:27:40;;;;;;;;;;;;;;;;;;5089298;28;19911;-77
2023/04/21 07:30:27;;;;;;;;;;;;;;;;;;5078458;28;19916;-80
2023/04/21 07:33:14;;;;;;;;;;;;;;;;;;5069441;28;19950;-78
2023/04/21 07:36:00;;;;;;;;;;;;;;;;;;5079049;28;19920;-78
2023/04/21 07:38:47;;;;;;;;;;;;;;;;;;5085048;28;20375;-78
2023/04/21 07:41:33;;;;;;;;;;;;;;;;;;5085414;28;19961;-78
2023/04/21 07:44:20;;;;;;;;;;;;;;;;;;5086324;28;20294;-78
2023/04/21 07:47:06;;;;;;;;;;;;;;;;;;5085053;28;19928;-78
2023/04/21 07:49:53;;;;;;;;;;;;;;;;;;5084681;28;20302;-78
2023/04/21 07:52:39;;;;;;;;;;;;;;;;;;5069096;28;20394;-79
2023/04/21 07:55:26;;;;;;;;;;;;;;;;;;5070024;28;19962;-79
2023/04/21 07:58:12;;;;;;;;;;;;;;;;;;5084152;28;19921;-79
2023/04/21 08:00:59;;;;;;;;;;;;;;;;;;5084134;28;19931;-80
2023/04/21 08:03:45;;;;;;;;;;;;;;;;;;5081950;28;19927;-79
2023/04/21 08:06:32;;;;;;;;;;;;;;;;;;5084645;28;19955;-79
2023/04/21 08:09:18;;;;;;;;;;;;;;;;;;5080879;28;19932;-79
2023/04/21 08:12:05;;;;;;;;;;;;;;;;;;5079471;28;19935;-78
2023/04/21 08:14:51;;;;;;;;;;;;;;;;;;5081624;28;19923;-78
2023/04/21 08:17:38;;;;;;;;;;;;;;;;;;5070236;28;20390;-78
2023/04/21 08:20:24;;;;;;;;;;;;;;;;;;5081709;28;19924;-79
2023/04/21 08:23:11;;;;;;;;;;;;;;;;;;5063967;28;19940;-79
2023/04/21 08:25:57;;;;;;;;;;;;;;;;;;5074974;28;20141;-78
2023/04/21 08:28:44;;;;;;;;;;;;;;;;;;5083307;28;19963;-78
2023/04/21 08:31:31;;;;;;;;;;;;;;;;;;5069834;28;20405;-78
2023/04/21 08:34:18;;;;;;;;;;;;;;;;;;5075940;28;19916;-78
2023/04/21 08:37:05;;;;;;;;;;;;;;;;;;5068010;28;19930;-78
2023/04/21 08:39:52;;;;;;;;;;;;;;;;;;5082537;28;19923;-78
2023/04/21 08:42:38;;;;;;;;;;;;;;;;;;5084929;28;19924;-78
2023/04/21 08:45:25;;;;;;;;;;;;;;;;;;5082145;28;20410;-78
2023/04/21 08:48:11;;;;;;;;;;;;;;;;;;5077273;28;20268;-78
2023/04/21 08:50:58;;;;;;;;;;;;;;;;;;5074194;28;19924;-78
2023/04/21 08:53:45;;;;;;;;;;;;;;;;;;5083110;28;19930;-78
2023/04/21 08:56:31;;;;;;;;;;;;;;;;;;5083828;28;19934;-78
2023/04/21 08:59:18;;;;;;;;;;;;;;;;;;5081883;28;20184;-76
2023/04/21 09:02:04;;;;;;;;;;;;;;;;;;5082844;28;19927;-79
2023/04/21 09:04:51;;;;;;;;;;;;;;;;;;5080909;28;19920;-78
2023/04/21 09:07:41;;;;;;;;;;;;;;;;;;5079434;28;19939;-78
2023/04/21 09:10:27;;;;;;;;;;;;;;;;;;5079257;28;20318;-78
2023/04/21 09:13:14;;;;;;;;;;;;;;;;;;5077426;28;19916;-77
2023/04/21 09:16:00;;;;;;;;;;;;;;;;;;5082818;28;19924;-77
2023/04/21 09:18:47;;;;;;;;;;;;;;;;;;5082958;28;19917;-78
2023/04/21 09:21:33;;;;;;;;;;;;;;;;;;5084232;28;19944;-78
2023/04/21 09:24:19;;;;;;;;;;;;;;;;;;5093935;28;19927;-78
2023/04/21 09:27:06;;;;;;;;;;;;;;;;;;5089406;28;19926;-77
2023/04/21 09:29:52;;;;;;;;;;;;;;;;;;5087122;28;19939;-78
2023/04/21 09:32:39;;;;;;;;;;;;;;;;;;5080420;28;19935;-78
2023/04/21 09:35:25;;;;;;;;;;;;;;;;;;5085739;28;19919;-78
2023/04/21 09:38:12;;;;;;;;;;;;;;;;;;5071516;28;19912;-78
2023/04/21 09:40:58;;;;;;;;;;;;;;;;;;5071276;28;19932;-78
2023/04/21 09:43:45;;;;;;;;;;;;;;;;;;5086086;28;19920;-78
2023/04/21 09:46:31;;;;;;;;;;;;;;;;;;5086554;28;19913;-78
2023/04/21 09:49:18;;;;;;;;;;;;;;;;;;5077266;28;20019;-78
2023/04/21 09:52:04;;;;;;;;;;;;;;;;;;5076191;28;19916;-78
2023/04/21 09:54:51;;;;;;;;;;;;;;;;;;5088165;28;19927;-78
2023/04/21 09:57:38;;;;;;;;;;;;;;;;;;5073554;28;19923;-78
2023/04/21 10:00:24;;;;;;;;;;;;;;;;;;5083627;28;19935;-78
2023/04/21 10:03:11;;;;;;;;;;;;;;;;;;5083987;28;20375;-78
2023/04/21 10:05:57;;;;;;;;;;;;;;;;;;5082099;28;19916;-77
2023/04/21 10:08:44;;;;;;;;;;;;;;;;;;5081989;28;19916;-78
2023/04/21 10:11:33;;;;;;;;;;;;;;;;;;5078925;28;19922;-78
2023/04/21 10:14:19;;;;;;;;;;;;;;;;;;5068418;28;20279;-77
2023/04/21 10:17:06;;;;;;;;;;;;;;;;;;5084638;28;19956;-78
2023/04/21 10:19:52;;;;;;;;;;;;;;;;;;5084840;28;19916;-77
2023/04/21 10:22:39;;;;;;;;;;;;;;;;;;5078584;28;19922;-78
2023/04/21 10:25:26;;;;;;;;;;;;;;;;;;5077202;28;19924;-78
2023/04/21 10:28:12;;;;;;;;;;;;;;;;;;5070378;28;19920;-78
2023/04/21 10:30:59;;;;;;;;;;;;;;;;;;5084913;28;19931;-78
2023/04/21 10:33:45;;;;;;;;;;;;;;;;;;5078539;28;19943;-78
2023/04/21 10:36:33;;;;;;;;;;;;;;;;;;5068002;28;19923;-78
2023/04/21 10:39:20;;;;;;;;;;;;;;;;;;5072824;28;19922;-78
2023/04/21 10:42:07;;;;;;;;;;;;;;;;;;5082956;28;19975;-78
2023/04/21 10:44:53;;;;;;;;;;;;;;;;;;5085889;28;19926;-79
2023/04/21 10:47:41;;;;;;;;;;;;;;;;;;5052712;28;19912;-78
2023/04/21 10:50:28;;;;;;;;;;;;;;;;;;5077790;28;19920;-82
2023/04/21 10:53:14;;;;;;;;;;;;;;;;;;5079557;28;20315;-80
2023/04/21 10:56:01;;;;;;;;;;;;;;;;;;5081509;28;19954;-81
2023/04/21 10:58:47;;;;;;;;;;;;;;;;;;5083867;28;20261;-80
2023/04/21 11:01:34;;;;;;;;;;;;;;;;;;5066500;28;19935;-80
2023/04/21 11:04:20;;;;;;;;;;;;;;;;;;5083053;28;19920;-80
2023/04/21 11:07:07;;;;;;;;;;;;;;;;;;5080965;28;19927;-80
2023/04/21 11:09:53;;;;;;;;;;;;;;;;;;5079120;28;19916;-78
2023/04/21 11:12:40;;;;;;;;;;;;;;;;;;5083782;28;19919;-78
2023/04/21 11:15:26;;;;;;;;;;;;;;;;;;5082139;28;20360;-79
2023/04/21 11:18:13;;;;;;;;;;;;;;;;;;5080384;28;19920;-78
2023/04/21 11:21:00;;;;;;;;;;;;;;;;;;5080018;28;20279;-80
2023/04/21 11:23:46;;;;;;;;;;;;;;;;;;5059912;28;19924;-80
2023/04/21 11:26:33;;;;;;;;;;;;;;;;;;5080793;28;20291;-82
2023/04/21 11:29:19;;;;;;;;;;;;;;;;;;5082350;28;19932;-81
2023/04/21 11:32:06;;;;;;;;;;;;;;;;;;5080315;28;20608;-81
2023/04/21 11:34:52;;;;;;;;;;;;;;;;;;5087466;28;19931;-79
2023/04/21 11:37:39;;;;;;;;;;;;;;;;;;5080422;28;19926;-79
2023/04/21 11:40:25;;;;;;;;;;;;;;;;;;5080078;28;19931;-80
2023/04/21 11:43:12;;;;;;;;;;;;;;;;;;5065978;28;20430;-80
2023/04/21 11:45:58;;;;;;;;;;;;;;;;;;5082266;28;19967;-81
2023/04/21 11:48:45;;;;;;;;;;;;;;;;;;5072212;28;20568;-78
2023/04/21 11:51:31;;;;;;;;;;;;;;;;;;5082116;28;19920;-80
2023/04/21 11:54:20;;;;;;;;;;;;;;;;;;5077573;28;19916;-78
2023/04/21 11:57:07;;;;;;;;;;;;;;;;;;5081237;28;20498;-78
2023/04/21 11:59:53;;;;;;;;;;;;;;;;;;5078135;28;19916;-77
2023/04/21 12:02:40;;;;;;;;;;;;;;;;;;5083654;28;19930;-81
2023/04/21 12:05:27;;;;;;;;;;;;;;;;;;5076071;28;19920;-81
2023/04/21 12:08:14;;;;;;;;;;;;;;;;;;5084359;28;19922;-82
2023/04/21 12:11:00;;;;;;;;;;;;;;;;;;5082032;28;19916;-80
2023/04/21 12:13:47;;;;;;;;;;;;;;;;;;5083070;28;20382;-80
2023/04/21 12:16:33;;;;;;;;;;;;;;;;;;5080589;28;19922;-81
2023/04/21 12:19:20;;;;;;;;;;;;;;;;;;5080278;28;19927;-81
2023/04/21 12:22:07;;;;;;;;;;;;;;;;;;5081542;28;19935;-79
2023/04/21 12:24:53;;;;;;;;;;;;;;;;;;5076816;28;20317;-80
2023/04/21 12:27:40;;;;;;;;;;;;;;;;;;5083306;28;20022;-80
2023/04/21 12:30:26;;;;;;;;;;;;;;;;;;5082775;28;19926;-81
2023/04/21 12:33:13;;;;;;;;;;;;;;;;;;5076548;28;19928;-82
2023/04/21 12:35:59;;;;;;;;;;;;;;;;;;5083072;28;19924;-83
2023/04/21 12:38:46;;;;;;;;;;;;;;;;;;5081825;28;20363;-83
2023/04/21 12:41:33;;;;;;;;;;;;;;;;;;5080866;28;19924;-81
2023/04/21 12:44:20;;;;;;;;;;;;;;;;;;5088386;28;19920;-82
2023/04/21 12:47:06;;;;;;;;;;;;;;;;;;5083271;28;19931;-80
2023/04/21 12:49:53;;;;;;;;;;;;;;;;;;5083642;28;19954;-78
2023/04/21 12:52:39;;;;;;;;;;;;;;;;;;5077016;28;20319;-79
2023/04/21 12:55:26;;;;;;;;;;;;;;;;;;5084352;28;19920;-78
2023/04/21 12:58:14;;;;;;;;;;;;;;;;;;5083776;28;19954;-79
2023/04/21 13:01:01;;;;;;;;;;;;;;;;;;5084246;28;19928;-82
2023/04/21 13:03:48;;;;;;;;;;;;;;;;;;5079703;28;19923;-81
2023/04/21 13:06:34;;;;;;;;;;;;;;;;;;5084116;28;19973;-82
2023/04/21 13:09:21;;;;;;;;;;;;;;;;;;5083685;28;19920;-82
2023/04/21 13:12:07;;;;;;;;;;;;;;;;;;5085939;28;19927;-79
2023/04/21 13:14:54;;;;;;;;;;;;;;;;;;5084005;28;19916;-80
2023/04/21 13:17:40;;;;;;;;;;;;;;;;;;5082869;28;19927;-81
2023/04/21 13:20:27;;;;;;;;;;;;;;;;;;5081796;28;19920;-83
2023/04/21 13:23:13;;;;;;;;;;;;;;;;;;5082969;28;19931;-80
2023/04/21 13:26:00;;;;;;;;;;;;;;;;;;5085074;28;19920;-80
2023/04/21 13:28:47;;;;;;;;;;;;;;;;;;5088052;28;19923;-79
2023/04/21 13:31:33;;;;;;;;;;;;;;;;;;5072710;28;19932;-82
2023/04/21 13:34:20;;;;;;;;;;;;;;;;;;5084814;28;19920;-81
2023/04/21 13:37:09;;;;;;;;;;;;;;;;;;5083513;28;19927;-77
2023/04/21 13:39:56;;;;;;;;;;;;;;;;;;5085054;28;19912;-81
2023/04/21 13:42:42;;;;;;;;;;;;;;;;;;5087646;28;19947;-81
2023/04/21 13:45:29;;;;;;;;;;;;;;;;;;5079093;28;20379;-81
2023/04/21 13:48:15;;;;;;;;;;;;;;;;;;5080973;28;19920;-78
2023/04/21 13:51:02;;;;;;;;;;;;;;;;;;5078817;28;19923;-80
2023/04/21 13:53:48;;;;;;;;;;;;;;;;;;5084775;28;19951;-78
2023/04/21 13:56:35;;;;;;;;;;;;;;;;;;5084702;28;20376;-81
2023/04/21 13:59:21;;;;;;;;;;;;;;;;;;5086326;28;19916;-79
2023/04/21 14:02:08;;;;;;;;;;;;;;;;;;5083771;28;19932;-80
2023/04/21 14:04:56;;;;;;;;;;;;;;;;;;5087213;28;20278;-81
2023/04/21 14:07:42;;;;;;;;;;;;;;;;;;5081277;28;19920;-78
2023/04/21 14:10:29;;;;;;;;;;;;;;;;;;5074512;28;20358;-81
2023/04/21 14:13:15;;;;;;;;;;;;;;;;;;5082686;28;20434;-82
2023/04/21 14:16:02;;;;;;;;;;;;;;;;;;5082843;28;19916;-77
2023/04/21 14:18:48;;;;;;;;;;;;;;;;;;5082853;28;19920;-78
2023/04/21 14:21:35;;;;;;;;;;;;;;;;;;5083189;28;20379;-81
2023/04/21 14:24:21;;;;;;;;;;;;;;;;;;5067907;28;20561;-81
2023/04/21 14:27:08;;;;;;;;;;;;;;;;;;5084348;28;19924;-82
2023/04/21 14:29:58;;;;;;;;;;;;;;;;;;5080183;28;19920;-81
2023/04/21 14:32:44;;;;;;;;;;;;;;;;;;5069954;28;19928;-82
2023/04/21 14:35:31;;;;;;;;;;;;;;;;;;5081925;28;19930;-80
2023/04/21 14:38:17;;;;;;;;;;;;;;;;;;5091019;28;19942;-80
2023/04/21 14:41:04;;;;;;;;;;;;;;;;;;5084806;28;20398;-80
2023/04/21 14:43:52;;;;;;;;;;;;;;;;;;5082444;28;19916;-80
2023/04/21 14:46:39;;;;;;;;;;;;;;;;;;5083674;28;19927;-79
2023/04/21 14:49:25;;;;;;;;;;;;;;;;;;5061982;28;19920;-79
2023/04/21 14:52:12;;;;;;;;;;;;;;;;;;5068159;28;19920;-78
2023/04/21 14:55:00;;;;;;;;;;;;;;;;;;5080489;28;19912;-78
2023/04/21 14:57:46;;;;;;;;;;;;;;;;;;5073624;28;19962;-79
2023/04/21 15:00:33;;;;;;;;;;;;;;;;;;5082798;28;19917;-80
2023/04/21 15:03:20;;;;;;;;;;;;;;;;;;5077332;28;19939;-79
2023/04/21 15:06:06;;;;;;;;;;;;;;;;;;5077619;28;20628;-79
2023/04/21 15:08:53;;;;;;;;;;;;;;;;;;5079367;28;19924;-79
2023/04/21 15:11:39;;;;;;;;;;;;;;;;;;5083753;28;20291;-79
2023/04/21 15:14:26;;;;;;;;;;;;;;;;;;5069843;28;20371;-80
2023/04/21 15:17:12;;;;;;;;;;;;;;;;;;5081683;28;19916;-79
2023/04/21 15:19:59;;;;;;;;;;;;;;;;;;5080242;28;19916;-80
2023/04/21 15:22:45;;;;;;;;;;;;;;;;;;5082957;28;20379;-79
2023/04/21 15:25:32;;;;;;;;;;;;;;;;;;5084330;28;19931;-81
2023/04/21 15:28:18;;;;;;;;;;;;;;;;;;5088091;28;20383;-78
2023/04/21 15:31:04;;;;;;;;;;;;;;;;;;5072749;28;19924;-77
2023/04/21 15:33:51;;;;;;;;;;;;;;;;;;5081077;28;19928;-78
2023/04/21 15:36:37;;;;;;;;;;;;;;;;;;5081831;28;19916;-81
2023/04/21 15:39:24;;;;;;;;;;;;;;;;;;5084673;28;19920;-79
2023/04/21 15:42:11;;;;;;;;;;;;;;;;;;5083640;28;21162;-80
2023/04/21 15:44:57;;;;;;;;;;;;;;;;;;5083154;28;19912;-79
2023/04/21 15:47:44;;;;;;;;;;;;;;;;;;5083837;28;19912;-79
2023/04/21 15:50:30;;;;;;;;;;;;;;;;;;5083419;28;20310;-77
2023/04/21 15:53:17;;;;;;;;;;;;;;;;;;5080557;28;19920;-78
2023/04/21 15:56:03;;;;;;;;;;;;;;;;;;5078445;28;19919;-78
2023/04/21 15:58:50;;;;;;;;;;;;;;;;;;5080147;28;19920;-78
2023/04/21 16:01:36;;;;;;;;;;;;;;;;;;5066040;28;20575;-78
2023/04/21 16:04:23;;;;;;;;;;;;;;;;;;5076542;28;19920;-78
2023/04/21 16:07:09;;;;;;;;;;;;;;;;;;5080429;28;19922;-78
2023/04/21 16:09:56;;;;;;;;;;;;;;;;;;5077167;28;19924;-78
2023/04/21 16:12:44;;;;;;;;;;;;;;;;;;5089096;28;19928;-78
2023/04/21 16:15:30;;;;;;;;;;;;;;;;;;5081091;28;19920;-78
2023/04/21 16:18:17;;;;;;;;;;;;;;;;;;5091894;28;19923;-80
2023/04/21 16:21:03;;;;;;;;;;;;;;;;;;5086078;28;20415;-81
2023/04/21 16:23:50;;;;;;;;;;;;;;;;;;5083733;28;19927;-82
2023/04/21 16:26:36;;;;;;;;;;;;;;;;;;5071326;28;19994;-80
2023/04/21 16:29:23;;;;;;;;;;;;;;;;;;5086424;28;19927;-78
2023/04/21 16:32:09;;;;;;;;;;;;;;;;;;5074495;28;19928;-78
2023/04/21 16:34:56;;;;;;;;;;;;;;;;;;5056287;28;19916;-77
2023/04/21 16:37:43;;;;;;;;;;;;;;;;;;5062651;28;19974;-77
2023/04/21 16:40:29;;;;;;;;;;;;;;;;;;5086315;28;19916;-78
2023/04/21 16:43:16;;;;;;;;;;;;;;;;;;5084572;28;19928;-77
2023/04/21 16:46:02;;;;;;;;;;;;;;;;;;5088558;28;20321;-80
2023/04/21 16:48:49;;;;;;;;;;;;;;;;;;5083901;28;19920;-79
2023/04/21 16:51:37;;;;;;;;;;;;;;;;;;5086649;28;19912;-80
2023/04/21 16:54:23;;;;;;;;;;;;;;;;;;5086453;28;19920;-77
2023/04/21 16:57:10;;;;;;;;;;;;;;;;;;5089382;28;19920;-80
2023/04/21 16:59:59;;;;;;;;;;;;;;;;;;5082941;28;19920;-78
2023/04/21 17:02:46;;;;;;;;;;;;;;;;;;5085001;28;19935;-77
2023/04/21 17:05:32;;;;;;;;;;;;;;;;;;5077942;28;19923;-78
2023/04/21 17:08:19;;;;;;;;;;;;;;;;;;5083472;28;20327;-76
2023/04/21 17:11:06;;;;;;;;;;;;;;;;;;5085011;28;19924;-78
2023/04/21 17:13:52;;;;;;;;;;;;;;;;;;5082442;28;19924;-76
2023/04/21 17:16:39;;;;;;;;;;;;;;;;;;5070613;28;19921;-78
2023/04/21 17:19:25;;;;;;;;;;;;;;;;;;5084701;28;20438;-77
2023/04/21 17:22:12;;;;;;;;;;;;;;;;;;5081465;28;19928;-78
2023/04/21 17:24:58;;;;;;;;;;;;;;;;;;5081629;28;19923;-77
2023/04/21 17:27:45;;;;;;;;;;;;;;;;;;5085760;28;20569;-77
2023/04/21 17:30:34;;;;;;;;;;;;;;;;;;5086362;28;19927;-77
2023/04/21 17:33:20;;;;;;;;;;;;;;;;;;5084534;28;19935;-78
2023/04/21 17:36:07;;;;;;;;;;;;;;;;;;5074583;28;20419;-77
2023/04/21 17:38:53;;;;;;;;;;;;;;;;;;5080393;28;19920;-79
2023/04/21 17:41:40;;;;;;;;;;;;;;;;;;5076947;28;19930;-77
2023/04/21 17:44:27;;;;;;;;;;;;;;;;;;5083211;28;19955;-77
2023/04/21 17:47:14;;;;;;;;;;;;;;;;;;5082084;28;20291;-81
2023/04/21 17:50:00;;;;;;;;;;;;;;;;;;5084261;28;19927;-80
2023/04/21 17:52:47;;;;;;;;;;;;;;;;;;5083302;28;19920;-81
2023/04/21 17:55:34;;;;;;;;;;;;;;;;;;5085688;28;19920;-80
2023/04/21 17:58:20;;;;;;;;;;;;;;;;;;5079063;28;19931;-79
2023/04/21 18:01:07;;;;;;;;;;;;;;;;;;5076466;28;19935;-78
2023/04/21 18:03:54;;;;;;;;;;;;;;;;;;5080658;28;19920;-77
2023/04/21 18:06:40;;;;;;;;;;;;;;;;;;5071232;28;19950;-77
2023/04/21 18:09:27;;;;;;;;;;;;;;;;;;5085362;28;19912;-78
2023/04/21 18:12:13;;;;;;;;;;;;;;;;;;5078557;28;19950;-77
2023/04/21 18:15:00;;;;;;;;;;;;;;;;;;5081865;28;19920;-77
2023/04/21 18:17:46;;;;;;;;;;;;;;;;;;5083701;28;19927;-75
2023/04/21 18:20:35;;;;;;;;;;;;;;;;;;5073615;28;19926;-78
2023/04/21 18:23:23;;;;;;;;;;;;;;;;;;5083504;28;19935;-79
2023/04/21 18:26:10;;;;;;;;;;;;;;;;;;5083333;28;19939;-78
2023/04/21 18:28:57;;;;;;;;;;;;;;;;;;5072512;28;19916;-78
2023/04/21 18:31:43;;;;;;;;;;;;;;;;;;5072080;28;19930;-79
2023/04/21 18:34:30;;;;;;;;;;;;;;;;;;5084587;28;20387;-79
2023/04/21 18:37:16;;;;;;;;;;;;;;;;;;5068590;28;19916;-78
2023/04/21 18:40:04;;;;;;;;;;;;;;;;;;5081151;28;19922;-79
2023/04/21 18:42:50;;;;;;;;;;;;;;;;;;5082066;28;19939;-79
2023/04/21 18:45:37;;;;;;;;;;;;;;;;;;5084794;28;20493;-80
2023/04/21 18:48:24;;;;;;;;;;;;;;;;;;5083336;28;19923;-80
2023/04/21 18:51:10;;;;;;;;;;;;;;;;;;5075329;28;19916;-80
2023/04/21 18:53:58;;;;;;;;;;;;;;;;;;5082934;28;19927;-80
2023/04/21 18:56:45;;;;;;;;;;;;;;;;;;5084687;28;19913;-80